createdAt,value
2022-09-12T00:01:55.451Z,100186.00
2022-09-12T00:04:41.138Z,100189.72
2022-09-12T00:07:27.298Z,100193.28
2022-09-12T00:10:13.698Z,100213.09
2022-09-12T00:12:59.291Z,100176.44
2022-09-12T00:15:45.614Z,100172.66
2022-09-12T00:18:32.204Z,100199.84
2022-09-12T00:21:18.917Z,100197.22
2022-09-12T00:24:05.790Z,100161.13
2022-09-12T00:26:51.390Z,100182.09
2022-09-12T00:29:37.544Z,100168.16
2022-09-12T00:32:23.413Z,100202.50
2022-09-12T00:35:09.880Z,100194.28
2022-09-12T00:37:55.716Z,100174.50
2022-09-12T00:40:42.386Z,100176.94
2022-09-12T00:43:40.143Z,100174.38
2022-09-12T00:46:32.075Z,100196.28
2022-09-12T00:49:25.741Z,100207.09
2022-09-12T00:52:33.520Z,100201.09
2022-09-12T00:55:38.226Z,100196.97
2022-09-12T00:58:36.069Z,100206.09
2022-09-12T01:01:21.760Z,100173.56
2022-09-12T01:04:09.489Z,100214.59
2022-09-12T01:06:57.361Z,100205.63
2022-09-12T01:09:44.610Z,100213.22
2022-09-12T01:12:31.377Z,100190.06
2022-09-12T01:15:17.347Z,100168.50
2022-09-12T01:18:32.905Z,100216.22
2022-09-12T01:21:30.541Z,100199.03
2022-09-12T01:25:00.074Z,100193.97
2022-09-12T01:27:52.236Z,100211.47
2022-09-12T01:31:00.974Z,100210.47
2022-09-12T01:34:13.803Z,100189.81
2022-09-12T01:37:09.453Z,100207.78
2022-09-12T01:40:21.675Z,100194.56
2022-09-12T01:43:37.796Z,100204.78
2022-09-12T01:46:43.963Z,100202.25
2022-09-12T01:49:37.914Z,100188.31
2022-09-12T01:52:39.789Z,100192.91
2022-09-12T01:55:32.896Z,100181.53
2022-09-12T01:58:26.926Z,100195.25
2022-09-12T02:01:16.600Z,100189.56
2022-09-12T02:04:24.769Z,100210.78
2022-09-12T02:07:20.192Z,100200.56
2022-09-12T02:10:12.106Z,100217.81
2022-09-12T02:13:01.850Z,100204.44
2022-09-12T02:15:52.026Z,100215.50
2022-09-12T02:18:45.308Z,100193.63
2022-09-12T02:21:33.100Z,100207.31
2022-09-12T02:24:20.958Z,100178.19
2022-09-12T02:27:16.545Z,100184.38
2022-09-12T02:30:02.563Z,100206.03
2022-09-12T02:32:51.558Z,100214.84
2022-09-12T02:35:53.093Z,100181.41
2022-09-12T02:38:47.047Z,100186.34
2022-09-12T02:41:33.341Z,100196.19
2022-09-12T02:44:20.792Z,100201.78
2022-09-12T02:47:14.558Z,100207.78
2022-09-12T02:50:00.401Z,100189.25
2022-09-12T02:52:46.644Z,100224.38
2022-09-12T02:55:34.545Z,100218.50
2022-09-12T02:58:24.515Z,100206.53
2022-09-12T03:01:19.011Z,100233.34
2022-09-12T03:04:07.981Z,100233.09
2022-09-12T03:07:07.914Z,100240.47
2022-09-12T03:10:18.642Z,100234.41
2022-09-12T03:13:25.943Z,100215.97
2022-09-12T03:16:24.969Z,100227.25
2022-09-12T03:19:55.750Z,100227.25
2022-09-12T03:22:52.940Z,100215.06
2022-09-12T03:25:48.041Z,100220.34
2022-09-12T03:28:35.769Z,100200.19
2022-09-12T03:31:22.515Z,100201.72
2022-09-12T03:34:13.027Z,100234.41
2022-09-12T03:36:59.467Z,100197.53
2022-09-12T03:39:44.878Z,100209.41
2022-09-12T03:42:30.777Z,100223.34
2022-09-12T03:45:16.695Z,100237.16
2022-09-12T03:48:04.058Z,100213.22
2022-09-12T03:50:49.753Z,100220.91
2022-09-12T03:53:36.830Z,100237.38
2022-09-12T03:56:22.491Z,100251.22
2022-09-12T03:59:08.887Z,100242.47
2022-09-12T04:01:54.768Z,100218.16
2022-09-12T04:04:43.323Z,100235.16
2022-09-12T04:07:29.634Z,100239.69
2022-09-12T04:10:16.339Z,100229.66
2022-09-12T04:13:02.540Z,100213.31
2022-09-12T04:15:59.580Z,100243.84
2022-09-12T04:18:46.694Z,100227.94
2022-09-12T04:21:32.795Z,100227.72
2022-09-12T04:24:20.706Z,100224.72
2022-09-12T04:27:08.597Z,100227.69
2022-09-12T04:29:55.356Z,100219.97
2022-09-12T04:32:41.554Z,100241.03
2022-09-12T04:35:27.777Z,100244.84
2022-09-12T04:38:13.739Z,100244.75
2022-09-12T04:41:00.372Z,100254.75
2022-09-12T04:43:47.672Z,100251.75
2022-09-12T04:46:36.339Z,100226.09
2022-09-12T04:49:21.911Z,100252.91
2022-09-12T04:52:08.227Z,100250.41
2022-09-12T04:54:54.340Z,100253.97
2022-09-12T04:57:40.051Z,100253.63
2022-09-12T05:00:25.729Z,100242.69
2022-09-12T05:03:11.473Z,100260.31
2022-09-12T05:05:57.683Z,100263.28
2022-09-12T05:08:44.210Z,100251.09
2022-09-12T05:12:00.161Z,100255.94
2022-09-12T05:14:38.792Z,100257.53
2022-09-12T05:17:25.520Z,100238.31
2022-09-12T05:20:12.851Z,100239.56
2022-09-12T05:22:59.904Z,100265.34
2022-09-12T05:25:52.757Z,100228.28
2022-09-12T05:28:39.666Z,100263.53
2022-09-12T05:31:27.605Z,100271.13
2022-09-12T05:34:16.981Z,100272.75
2022-09-12T05:37:02.629Z,100249.84
2022-09-12T05:39:48.985Z,100289.22
2022-09-12T05:42:34.537Z,100279.06
2022-09-12T05:45:21.490Z,100248.31
2022-09-12T05:48:07.105Z,100267.66
2022-09-12T05:50:53.055Z,100276.88
2022-09-12T05:53:40.265Z,100283.91
2022-09-12T05:56:28.794Z,100267.88
2022-09-12T05:59:22.364Z,100265.47
2022-09-12T06:02:10.180Z,100290.56
2022-09-12T06:04:56.078Z,100286.16
2022-09-12T06:07:41.844Z,100285.91
2022-09-12T06:10:28.299Z,100267.44
2022-09-12T06:13:14.281Z,100286.72
2022-09-12T06:16:11.371Z,100293.63
2022-09-12T06:19:10.420Z,100278.44
2022-09-12T06:22:07.789Z,100293.03
2022-09-12T06:24:57.764Z,100258.66
2022-09-12T06:27:45.928Z,100289.81
2022-09-12T06:30:32.501Z,100283.22
2022-09-12T06:33:19.056Z,100262.38
2022-09-12T06:36:11.578Z,100271.25
2022-09-12T06:39:07.633Z,100297.00
2022-09-12T06:41:54.562Z,100299.72
2022-09-12T06:44:52.075Z,100297.91
2022-09-12T06:47:37.729Z,100291.22
2022-09-12T06:50:23.961Z,100295.94
2022-09-12T06:53:10.081Z,100296.06
2022-09-12T06:56:00.533Z,100274.16
2022-09-12T06:58:49.716Z,100290.41
2022-09-12T07:01:35.639Z,100305.28
2022-09-12T07:04:22.151Z,100277.69
2022-09-12T07:07:08.021Z,100290.31
2022-09-12T07:09:54.226Z,100284.88
2022-09-12T07:12:39.995Z,100288.00
2022-09-12T07:15:25.774Z,100318.13
2022-09-12T07:18:11.349Z,100320.03
2022-09-12T07:21:00.316Z,100319.50
2022-09-12T07:23:46.166Z,100316.09
2022-09-12T07:26:32.612Z,100277.09
2022-09-12T07:29:36.700Z,100303.56
2022-09-12T07:32:23.398Z,100283.59
2022-09-12T07:35:08.997Z,100299.53
2022-09-12T07:37:55.126Z,100295.84
2022-09-12T07:40:40.879Z,100323.34
2022-09-12T07:43:27.311Z,100322.34
2022-09-12T07:46:12.982Z,100312.13
2022-09-12T07:49:00.826Z,100293.88
2022-09-12T07:51:46.818Z,100284.94
2022-09-12T07:54:33.326Z,100294.13
2022-09-12T07:57:19.505Z,100315.94
2022-09-12T08:00:07.421Z,100303.47
2022-09-12T08:02:58.027Z,100309.75
2022-09-12T08:05:44.167Z,100315.91
2022-09-12T08:08:29.921Z,100333.81
2022-09-12T08:11:18.156Z,100319.66
2022-09-12T08:14:05.688Z,100312.69
2022-09-12T08:16:51.893Z,100303.59
2022-09-12T08:19:38.835Z,100322.34
2022-09-12T08:22:25.862Z,100304.66
2022-09-12T08:25:11.881Z,100321.09
2022-09-12T08:27:57.820Z,100301.22
2022-09-12T08:30:43.367Z,100323.59
2022-09-12T08:33:33.210Z,100321.91
2022-09-12T08:36:21.389Z,100310.78
2022-09-12T08:39:07.940Z,100321.25
2022-09-12T08:42:04.876Z,100329.66
2022-09-12T08:45:17.761Z,100310.81
2022-09-12T08:48:05.004Z,100303.16
2022-09-12T08:50:51.450Z,100325.13
2022-09-12T08:53:37.640Z,100302.19
2022-09-12T08:56:27.428Z,100313.63
2022-09-12T08:59:16.594Z,100319.81
2022-09-12T09:02:04.500Z,100280.63
2022-09-12T09:04:52.260Z,100285.16
2022-09-12T09:08:08.953Z,100322.50
2022-09-12T09:11:21.436Z,100328.22
2022-09-12T09:14:48.320Z,100329.75
2022-09-12T09:17:50.026Z,100292.50
2022-09-12T09:20:47.363Z,100308.16
2022-09-12T09:23:46.339Z,100330.97
2022-09-12T09:26:56.575Z,100299.03
2022-09-12T09:29:47.078Z,100310.44
2022-09-12T09:32:38.550Z,100302.81
2022-09-12T09:35:45.656Z,100316.09
2022-09-12T09:38:51.066Z,100330.03
2022-09-12T09:41:46.297Z,100297.38
2022-09-12T09:44:32.411Z,100324.50
2022-09-12T09:47:18.567Z,100304.63
2022-09-12T09:50:04.374Z,100306.81
2022-09-12T09:52:52.109Z,100299.19
2022-09-12T09:55:43.853Z,100284.59
2022-09-12T09:58:31.291Z,100299.44
2022-09-12T10:01:18.221Z,100316.78
2022-09-12T10:04:04.411Z,100297.28
2022-09-12T10:06:57.033Z,100320.63
2022-09-12T10:09:42.685Z,100320.72
2022-09-12T10:12:28.821Z,100317.13
2022-09-12T10:15:26.976Z,100313.69
2022-09-12T10:18:51.069Z,100311.00
2022-09-12T10:21:48.253Z,100272.53
2022-09-12T10:24:41.165Z,100294.53
2022-09-12T10:27:33.186Z,100326.72
2022-09-12T10:30:21.717Z,100301.84
2022-09-12T10:33:11.203Z,100323.00
2022-09-12T10:36:03.630Z,100306.25
2022-09-12T10:38:54.697Z,100297.56
2022-09-12T10:41:41.153Z,100311.53
2022-09-12T10:44:33.269Z,100286.84
2022-09-12T10:47:22.671Z,100279.91
2022-09-12T10:50:24.098Z,100294.16
2022-09-12T10:53:30.990Z,100322.25
2022-09-12T10:56:26.427Z,100298.97
2022-09-12T10:59:34.358Z,100304.91
2022-09-12T11:02:35.125Z,100296.97
2022-09-12T11:05:43.140Z,100316.47
2022-09-12T11:08:53.965Z,100296.97
2022-09-12T11:11:46.252Z,100309.28
2022-09-12T11:14:47.141Z,100277.69
2022-09-12T11:17:36.120Z,100310.22
2022-09-12T11:20:51.558Z,100307.31
2022-09-12T11:23:49.449Z,100303.22
2022-09-12T11:26:55.630Z,100304.66
2022-09-12T11:29:48.558Z,100304.22
2022-09-12T11:32:46.641Z,100298.31
2022-09-12T11:35:34.141Z,100296.69
2022-09-12T11:38:35.161Z,100306.38
2022-09-12T11:41:29.455Z,100286.78
2022-09-12T11:44:22.658Z,100292.25
2022-09-12T11:47:12.136Z,100294.97
2022-09-12T11:49:59.893Z,100307.44
2022-09-12T11:52:46.867Z,100310.50
2022-09-12T11:56:06.309Z,100301.59
2022-09-12T11:59:00.071Z,100296.78
2022-09-12T12:01:48.707Z,100303.00
2022-09-12T12:04:41.745Z,100311.78
2022-09-12T12:07:34.637Z,100310.81
2022-09-12T12:10:26.692Z,100310.94
2022-09-12T12:13:15.596Z,100311.38
2022-09-12T12:16:21.501Z,100299.13
2022-09-12T12:19:20.443Z,100290.50
2022-09-12T12:22:08.852Z,100254.41
2022-09-12T12:25:04.022Z,100293.41
2022-09-12T12:28:01.401Z,100261.78
2022-09-12T12:30:53.371Z,100249.13
2022-09-12T12:33:38.813Z,100273.41
2022-09-12T12:36:40.326Z,100271.78
2022-09-12T12:39:32.006Z,100295.00
2022-09-12T12:42:35.859Z,100295.88
2022-09-12T12:45:27.893Z,100289.22
2022-09-12T12:48:17.400Z,100278.75
2022-09-12T12:51:25.934Z,100291.19
2022-09-12T12:54:33.653Z,100273.50
2022-09-12T12:57:27.545Z,100264.63
2022-09-12T13:00:26.187Z,100284.69
2022-09-12T13:03:27.628Z,100255.88
2022-09-12T13:06:46.453Z,100277.78
2022-09-12T13:09:44.432Z,100281.66
2022-09-12T13:12:33.992Z,100284.34
2022-09-12T13:15:47.692Z,100264.53
2022-09-12T13:18:46.691Z,100284.06
2022-09-12T13:21:33.446Z,100267.53
2022-09-12T13:24:22.787Z,100274.91
2022-09-12T13:27:23.532Z,100279.38
2022-09-12T13:30:14.080Z,100228.69
2022-09-12T13:33:10.521Z,100247.59
2022-09-12T13:36:18.736Z,100223.34
2022-09-12T13:39:27.337Z,100270.41
2022-09-12T13:42:30.770Z,100265.28
2022-09-12T13:45:22.886Z,100260.38
2022-09-12T13:48:14.306Z,100237.88
2022-09-12T13:51:01.885Z,100247.53
2022-09-12T13:53:47.862Z,100249.97
2022-09-12T13:56:34.453Z,100259.22
2022-09-12T13:59:19.800Z,100248.25
2022-09-12T14:02:23.644Z,100241.97
2022-09-12T14:05:21.731Z,100258.19
2022-09-12T14:08:08.664Z,100253.50
2022-09-12T14:10:55.432Z,100252.19
2022-09-12T14:13:41.247Z,100226.66
2022-09-12T14:16:29.356Z,100219.13
2022-09-12T14:19:17.068Z,100220.72
2022-09-12T14:22:03.057Z,100249.69
2022-09-12T14:24:53.092Z,100235.28
2022-09-12T14:27:45.712Z,100259.06
2022-09-12T14:30:40.799Z,100256.28
2022-09-12T14:33:26.552Z,100250.63
2022-09-12T14:36:20.626Z,100257.59
2022-09-12T14:39:34.785Z,100243.63
2022-09-12T14:42:22.434Z,100231.50
2022-09-12T14:45:27.805Z,100242.56
2022-09-12T14:48:18.600Z,100249.47
2022-09-12T14:51:05.512Z,100229.94
2022-09-12T14:53:51.512Z,100241.13
2022-09-12T14:56:42.650Z,100245.22
2022-09-12T14:59:34.806Z,100239.81
2022-09-12T15:02:22.530Z,100243.13
2022-09-12T15:05:08.747Z,100240.94
2022-09-12T15:08:01.418Z,100212.53
2022-09-12T15:10:47.679Z,100236.88
2022-09-12T15:13:40.138Z,100224.38
2022-09-12T15:16:26.579Z,100207.72
2022-09-12T15:19:12.170Z,100226.28
2022-09-12T15:21:58.161Z,100219.91
2022-09-12T15:24:43.532Z,100195.44
2022-09-12T15:27:29.904Z,100228.84
2022-09-12T15:30:16.072Z,100219.75
2022-09-12T15:33:01.689Z,100224.66
2022-09-12T15:35:47.770Z,100204.66
2022-09-12T15:38:34.119Z,100221.38
2022-09-12T15:41:33.548Z,100239.78
2022-09-12T15:44:20.218Z,100222.06
2022-09-12T15:47:06.195Z,100219.56
2022-09-12T15:49:52.524Z,100245.13
2022-09-12T15:52:38.253Z,100220.22
2022-09-12T15:55:27.957Z,100229.06
2022-09-12T15:58:14.111Z,100211.38
2022-09-12T16:01:00.141Z,100244.47
2022-09-12T16:03:47.621Z,100236.38
2022-09-12T16:06:37.228Z,100242.66
2022-09-12T16:09:24.132Z,100229.41
2022-09-12T16:12:10.577Z,100233.66
2022-09-12T16:14:57.293Z,100223.91
2022-09-12T16:17:43.565Z,100252.41
2022-09-12T16:20:29.524Z,100242.84
2022-09-12T16:23:16.120Z,100203.88
2022-09-12T16:26:04.465Z,100217.56
2022-09-12T16:29:00.321Z,100234.00
2022-09-12T16:31:46.045Z,100248.41
2022-09-12T16:34:31.868Z,100216.31
2022-09-12T16:37:18.254Z,100250.44
2022-09-12T16:40:05.268Z,100247.56
2022-09-12T16:42:51.297Z,100249.19
2022-09-12T16:45:37.132Z,100220.25
2022-09-12T16:48:22.591Z,100217.03
2022-09-12T16:51:08.271Z,100245.97
2022-09-12T16:53:55.386Z,100245.97
2022-09-12T16:56:42.056Z,100205.69
2022-09-12T16:59:28.011Z,100199.34
2022-09-12T17:02:15.138Z,100249.84
2022-09-12T17:05:00.500Z,100225.25
2022-09-12T17:07:48.476Z,100220.09
2022-09-12T17:10:34.928Z,100212.84
2022-09-12T17:13:21.187Z,100212.78
2022-09-12T17:16:11.667Z,100242.53
2022-09-12T17:18:57.875Z,100200.22
2022-09-12T17:21:48.866Z,100227.59
2022-09-12T17:24:34.985Z,100233.25
2022-09-12T17:27:20.526Z,100227.09
2022-09-12T17:30:07.714Z,100226.66
2022-09-12T17:32:54.113Z,100220.09
2022-09-12T17:35:39.805Z,100226.91
2022-09-12T17:38:26.048Z,100225.56
2022-09-12T17:41:16.038Z,100225.47
2022-09-12T17:44:04.002Z,100229.06
2022-09-12T17:46:49.914Z,100232.13
2022-09-12T17:49:37.841Z,100256.59
2022-09-12T17:52:23.539Z,100231.91
2022-09-12T17:55:09.685Z,100253.63
2022-09-12T17:57:56.492Z,100240.78
2022-09-12T18:01:00.886Z,100225.47
2022-09-12T18:03:47.170Z,100209.94
2022-09-12T18:06:33.465Z,100233.19
2022-09-12T18:09:21.649Z,100233.97
2022-09-12T18:12:11.049Z,100221.91
2022-09-12T18:14:57.508Z,100232.28
2022-09-12T18:17:44.466Z,100215.38
2022-09-12T18:20:30.491Z,100230.69
2022-09-12T18:23:16.761Z,100248.38
2022-09-12T18:26:08.529Z,100238.00
2022-09-12T18:28:54.475Z,100219.16
2022-09-12T18:31:40.454Z,100235.13
2022-09-12T18:34:26.651Z,100221.38
2022-09-12T18:37:12.982Z,100226.19
2022-09-12T18:39:59.084Z,100220.59
2022-09-12T18:42:44.756Z,100246.88
2022-09-12T18:45:30.630Z,100253.19
2022-09-12T18:48:16.660Z,100229.50
2022-09-12T18:51:06.210Z,100210.75
2022-09-12T18:53:54.839Z,100240.38
2022-09-12T18:56:43.571Z,100244.97
2022-09-12T18:59:29.402Z,100244.88
2022-09-12T19:02:16.514Z,100219.50
2022-09-12T19:05:02.570Z,100237.38
2022-09-12T19:07:48.483Z,100209.41
2022-09-12T19:10:34.683Z,100235.59
2022-09-12T19:13:20.534Z,100217.09
2022-09-12T19:16:11.664Z,100232.38
2022-09-12T19:18:59.366Z,100219.97
2022-09-12T19:21:45.641Z,100193.41
2022-09-12T19:24:31.475Z,100218.06
2022-09-12T19:27:17.444Z,100201.16
2022-09-12T19:30:03.373Z,100184.03
2022-09-12T19:32:49.793Z,100207.53
2022-09-12T19:35:37.588Z,100201.44
2022-09-12T19:38:23.034Z,100206.16
2022-09-12T19:41:15.032Z,100203.22
2022-09-12T19:44:01.395Z,100198.50
2022-09-12T19:46:47.690Z,100206.28
2022-09-12T19:49:33.773Z,100180.09
2022-09-12T19:52:19.848Z,100219.50
2022-09-12T19:55:06.835Z,100193.31
2022-09-12T19:57:53.734Z,100223.06
2022-09-12T20:00:40.508Z,100215.47
2022-09-12T20:03:26.670Z,100186.16
2022-09-12T20:06:18.405Z,100211.53
2022-09-12T20:09:03.724Z,100213.88
2022-09-12T20:11:50.413Z,100176.94
2022-09-12T20:14:36.366Z,100204.22
2022-09-12T20:17:25.214Z,100206.88
2022-09-12T20:20:11.773Z,100188.59
2022-09-12T20:22:57.764Z,100190.09
2022-09-12T20:25:43.681Z,100176.44
2022-09-12T20:28:30.483Z,100197.25
2022-09-12T20:31:16.783Z,100197.94
2022-09-12T20:34:04.132Z,100197.59
2022-09-12T20:36:50.075Z,100181.53
2022-09-12T20:39:36.161Z,100200.28
2022-09-12T20:42:21.550Z,100194.72
2022-09-12T20:45:07.588Z,100173.19
2022-09-12T20:47:53.652Z,100178.72
2022-09-12T20:50:39.349Z,100172.75
2022-09-12T20:53:25.137Z,100191.16
2022-09-12T20:56:11.102Z,100201.38
2022-09-12T20:58:57.026Z,100180.00
2022-09-12T21:01:44.327Z,100180.91
2022-09-12T21:04:30.371Z,100152.25
2022-09-12T21:07:16.544Z,100184.88
2022-09-12T21:10:02.432Z,100165.56
2022-09-12T21:12:48.625Z,100172.41
2022-09-12T21:15:34.779Z,100187.09
2022-09-12T21:18:20.555Z,100182.00
2022-09-12T21:21:08.146Z,100190.63
2022-09-12T21:23:58.168Z,100174.47
2022-09-12T21:26:44.222Z,100153.69
2022-09-12T21:29:30.715Z,100187.50
2022-09-12T21:32:16.673Z,100166.09
2022-09-12T21:35:03.962Z,100189.53
2022-09-12T21:37:52.077Z,100173.19
2022-09-12T21:40:38.098Z,100137.06
2022-09-12T21:43:23.893Z,100167.22
2022-09-12T21:46:10.462Z,100173.63
2022-09-12T21:48:56.495Z,100149.63
2022-09-12T21:51:42.314Z,100162.25
2022-09-12T21:54:28.048Z,100156.91
2022-09-12T21:57:13.608Z,100168.44
2022-09-12T21:59:59.627Z,100140.53
2022-09-12T22:02:47.467Z,100143.63
2022-09-12T22:05:34.438Z,100140.91
2022-09-12T22:08:20.113Z,100133.28
2022-09-12T22:11:09.633Z,100167.75
2022-09-12T22:13:55.969Z,100141.97
2022-09-12T22:16:41.506Z,100155.44
2022-09-12T22:19:27.521Z,100116.06
2022-09-12T22:22:32.312Z,100137.44
2022-09-12T22:25:20.119Z,100165.34
2022-09-12T22:28:05.882Z,100146.94
2022-09-12T22:30:53.300Z,100133.25
2022-09-12T22:33:39.287Z,100139.00
2022-09-12T22:36:29.242Z,100132.09
2022-09-12T22:39:16.617Z,100139.09
2022-09-12T22:42:03.893Z,100131.38
2022-09-12T22:44:49.397Z,100135.88
2022-09-12T22:47:36.030Z,100131.16
2022-09-12T22:50:21.521Z,100128.84
2022-09-12T22:53:07.241Z,100131.94
2022-09-12T22:55:52.996Z,100137.66
2022-09-12T22:58:38.916Z,100107.56
2022-09-12T23:01:24.569Z,100124.00
2022-09-12T23:04:10.810Z,100135.16
2022-09-12T23:06:56.236Z,100137.78
2022-09-12T23:09:42.100Z,100135.72
2022-09-12T23:12:28.109Z,100130.06
2022-09-12T23:15:14.969Z,100132.94
2022-09-12T23:18:00.505Z,100104.78
2022-09-12T23:21:06.003Z,100117.31
2022-09-12T23:23:52.237Z,100100.03
2022-09-12T23:26:38.584Z,100108.91
2022-09-12T23:29:24.340Z,100117.84
2022-09-12T23:32:10.789Z,100091.66
2022-09-12T23:34:56.473Z,100099.78
2022-09-12T23:37:42.607Z,100089.69
2022-09-12T23:40:28.021Z,100092.13
2022-09-12T23:43:13.878Z,100091.47
2022-09-12T23:46:00.483Z,100077.28
2022-09-12T23:48:47.181Z,100048.59
2022-09-12T23:51:33.331Z,100060.75
2022-09-12T23:54:18.897Z,100103.38
2022-09-12T23:57:04.967Z,100062.53
2022-09-12T23:59:51.152Z,100093.72
